createdAt,value
2023-01-18T00:01:52.140Z,13.80
2023-01-18T00:04:37.712Z,16.90
2023-01-18T00:07:23.324Z,10.15
2023-01-18T00:10:09.340Z,10.05
2023-01-18T00:12:55.070Z,12.23
2023-01-18T00:15:40.882Z,8.70
2023-01-18T00:18:26.165Z,11.25
2023-01-18T00:21:12.336Z,15.30
2023-01-18T00:23:58.114Z,10.20
2023-01-18T00:26:43.970Z,10.13
2023-01-18T00:29:30.339Z,9.25
2023-01-18T00:32:16.859Z,16.70
2023-01-18T00:35:07.232Z,10.50
2023-01-18T00:37:54.114Z,8.80
2023-01-18T00:40:39.540Z,11.35
2023-01-18T00:43:41.415Z,6.30
2023-01-18T00:46:30.023Z,12.80
2023-01-18T00:49:15.537Z,13.15
2023-01-18T00:52:01.185Z,11.07
2023-01-18T00:54:46.910Z,9.52
2023-01-18T00:57:32.455Z,9.25
2023-01-18T01:00:19.613Z,9.88
2023-01-18T01:03:04.870Z,9.82
2023-01-18T01:06:08.854Z,9.80
2023-01-18T01:08:54.548Z,8.32
2023-01-18T01:11:40.184Z,11.50
2023-01-18T01:14:43.894Z,11.57
2023-01-18T01:17:52.957Z,10.50
2023-01-18T01:20:57.002Z,7.07
2023-01-18T01:24:01.095Z,9.05
2023-01-18T01:26:46.732Z,11.80
2023-01-18T01:29:32.486Z,9.80
2023-01-18T01:32:17.801Z,15.98
2023-01-18T01:35:03.362Z,9.52
2023-01-18T01:37:48.762Z,9.10
2023-01-18T01:40:34.399Z,10.07
2023-01-18T01:43:37.136Z,9.90
2023-01-18T01:46:32.946Z,10.00
2023-01-18T01:49:32.035Z,10.02
2023-01-18T01:52:23.612Z,8.38
2023-01-18T01:55:20.804Z,8.23
2023-01-18T01:58:28.383Z,9.63
2023-01-18T02:01:14.277Z,9.13
2023-01-18T02:04:02.113Z,8.77
2023-01-18T02:06:47.780Z,11.13
2023-01-18T02:09:33.614Z,10.10
2023-01-18T02:12:19.632Z,10.60
2023-01-18T02:15:05.915Z,13.57
2023-01-18T02:18:06.866Z,10.10
2023-01-18T02:21:18.532Z,8.63
2023-01-18T02:24:31.991Z,10.35
2023-01-18T02:27:35.458Z,12.02
2023-01-18T02:30:30.390Z,9.17
2023-01-18T02:33:18.377Z,7.90
2023-01-18T02:36:05.528Z,8.45
2023-01-18T02:38:55.859Z,11.30
2023-01-18T02:42:06.872Z,9.03
2023-01-18T02:45:11.566Z,10.32
2023-01-18T02:47:57.441Z,8.65
2023-01-18T02:50:42.826Z,10.38
2023-01-18T02:53:30.144Z,10.32
2023-01-18T02:56:27.715Z,8.18
2023-01-18T02:59:24.797Z,10.32
2023-01-18T03:02:16.242Z,10.50
2023-01-18T03:05:03.525Z,14.52
2023-01-18T03:08:11.001Z,10.07
2023-01-18T03:11:02.895Z,10.85
2023-01-18T03:13:59.601Z,8.73
2023-01-18T03:17:00.040Z,10.73
2023-01-18T03:20:03.680Z,8.80
2023-01-18T03:23:12.274Z,11.05
2023-01-18T03:26:00.224Z,12.48
2023-01-18T03:29:10.691Z,9.90
2023-01-18T03:32:26.336Z,8.65
2023-01-18T03:35:16.202Z,10.37
2023-01-18T03:38:01.880Z,13.52
2023-01-18T03:40:47.720Z,9.80
2023-01-18T03:43:37.816Z,10.95
2023-01-18T03:46:24.792Z,11.52
2023-01-18T03:49:11.162Z,9.55
2023-01-18T03:52:02.362Z,8.20
2023-01-18T03:55:12.426Z,8.32
2023-01-18T03:58:03.221Z,9.55
2023-01-18T04:00:50.056Z,11.98
2023-01-18T04:03:35.313Z,7.63
2023-01-18T04:06:22.865Z,10.60
2023-01-18T04:09:08.619Z,10.13
2023-01-18T04:11:54.084Z,8.88
2023-01-18T04:14:39.352Z,14.63
2023-01-18T04:17:25.113Z,8.00
2023-01-18T04:20:11.032Z,9.80
2023-01-18T04:22:56.765Z,9.97
2023-01-18T04:25:49.879Z,9.48
2023-01-18T04:28:35.610Z,12.45
2023-01-18T04:31:22.358Z,8.45
2023-01-18T04:34:08.093Z,9.50
2023-01-18T04:36:53.581Z,9.70
2023-01-18T04:39:39.088Z,10.48
2023-01-18T04:42:25.706Z,10.57
2023-01-18T04:45:13.980Z,11.48
2023-01-18T04:47:59.585Z,7.97
2023-01-18T04:50:46.452Z,7.50
2023-01-18T04:53:34.523Z,10.05
2023-01-18T04:56:19.849Z,11.35
2023-01-18T04:59:06.235Z,8.82
2023-01-18T05:01:51.469Z,9.87
2023-01-18T05:04:36.701Z,7.87
2023-01-18T05:07:24.613Z,8.98
2023-01-18T05:10:10.423Z,11.77
2023-01-18T05:12:56.562Z,12.60
2023-01-18T05:15:42.527Z,6.65
2023-01-18T05:18:28.767Z,10.90
2023-01-18T05:21:15.085Z,10.98
2023-01-18T05:24:00.355Z,10.82
2023-01-18T05:26:46.032Z,8.82
2023-01-18T05:29:31.385Z,9.50
2023-01-18T05:32:17.255Z,8.50
2023-01-18T05:35:04.447Z,10.52
2023-01-18T05:37:49.647Z,11.50
2023-01-18T05:40:34.968Z,10.00
2023-01-18T05:43:27.057Z,8.93
2023-01-18T05:46:12.508Z,10.35
2023-01-18T05:48:58.820Z,13.38
2023-01-18T05:51:44.332Z,10.32
2023-01-18T05:54:29.613Z,11.57
2023-01-18T05:57:15.118Z,9.68
2023-01-18T06:00:02.223Z,12.25
2023-01-18T06:02:47.721Z,15.02
2023-01-18T06:05:33.476Z,11.57
2023-01-18T06:08:19.520Z,8.47
2023-01-18T06:11:06.368Z,12.30
2023-01-18T06:13:52.359Z,17.48
2023-01-18T06:16:38.015Z,10.13
2023-01-18T06:19:23.639Z,11.85
2023-01-18T06:22:09.116Z,10.35
2023-01-18T06:24:55.119Z,10.77
2023-01-18T06:27:40.940Z,11.25
2023-01-18T06:30:26.821Z,9.88
2023-01-18T06:33:12.165Z,10.43
2023-01-18T06:35:57.827Z,9.80
2023-01-18T06:38:43.208Z,9.30
2023-01-18T06:41:29.261Z,8.65
2023-01-18T06:44:14.890Z,10.30
2023-01-18T06:47:00.193Z,9.25
2023-01-18T06:49:47.922Z,12.88
2023-01-18T06:52:33.458Z,7.38
2023-01-18T06:55:19.880Z,8.57
2023-01-18T06:58:05.132Z,12.37
2023-01-18T07:00:51.744Z,9.65
2023-01-18T07:03:38.827Z,11.23
2023-01-18T07:06:24.257Z,8.07
2023-01-18T07:09:10.431Z,7.88
2023-01-18T07:11:56.050Z,9.00
2023-01-18T07:14:41.317Z,7.90
2023-01-18T07:17:26.904Z,9.68
2023-01-18T07:20:15.697Z,7.53
2023-01-18T07:23:01.272Z,9.27
2023-01-18T07:25:46.787Z,8.68
2023-01-18T07:28:34.122Z,10.18
2023-01-18T07:31:20.140Z,8.63
2023-01-18T07:34:06.201Z,11.98
2023-01-18T07:36:51.859Z,10.32
2023-01-18T07:39:37.037Z,8.82
2023-01-18T07:42:22.805Z,10.82
2023-01-18T07:45:09.498Z,8.73
2023-01-18T07:47:54.920Z,10.68
2023-01-18T07:50:40.817Z,9.60
2023-01-18T07:53:30.459Z,12.43
2023-01-18T07:56:17.563Z,9.05
2023-01-18T07:59:03.081Z,10.05
2023-01-18T08:01:48.422Z,11.80
2023-01-18T08:04:34.130Z,9.98
2023-01-18T08:07:19.892Z,9.95
2023-01-18T08:10:05.629Z,12.02
2023-01-18T08:12:51.703Z,13.25
2023-01-18T08:15:38.594Z,9.88
2023-01-18T08:18:23.959Z,10.32
2023-01-18T08:21:11.176Z,11.27
2023-01-18T08:23:56.436Z,11.33
2023-01-18T08:26:41.739Z,12.15
2023-01-18T08:29:27.462Z,10.77
2023-01-18T08:32:13.062Z,10.57
2023-01-18T08:34:58.919Z,13.32
2023-01-18T08:37:44.486Z,11.27
2023-01-18T08:40:30.413Z,9.60
2023-01-18T08:43:15.836Z,15.48
2023-01-18T08:46:01.336Z,16.45
2023-01-18T08:48:55.405Z,12.07
2023-01-18T08:51:41.163Z,13.20
2023-01-18T08:54:26.652Z,9.85
2023-01-18T08:57:11.977Z,10.18
2023-01-18T08:59:57.724Z,9.50
2023-01-18T09:02:43.356Z,8.85
2023-01-18T09:05:28.870Z,10.90
2023-01-18T09:08:14.236Z,10.85
2023-01-18T09:11:04.610Z,14.77
2023-01-18T09:14:00.769Z,9.50
2023-01-18T09:16:46.991Z,10.02
2023-01-18T09:19:32.854Z,9.90
2023-01-18T09:22:18.677Z,11.03
2023-01-18T09:25:05.690Z,9.93
2023-01-18T09:27:51.574Z,11.63
2023-01-18T09:30:36.888Z,11.65
2023-01-18T09:33:22.399Z,11.50
2023-01-18T09:36:10.168Z,12.52
2023-01-18T09:38:55.744Z,11.97
2023-01-18T09:41:49.479Z,16.08
2023-01-18T09:44:40.658Z,11.05
2023-01-18T09:47:34.277Z,13.38
2023-01-18T09:50:21.251Z,11.95
2023-01-18T09:53:38.289Z,15.15
2023-01-18T09:56:38.519Z,11.30
2023-01-18T09:59:37.246Z,14.73
2023-01-18T10:02:39.078Z,13.23
2023-01-18T10:05:29.229Z,15.03
2023-01-18T10:08:24.356Z,12.77
2023-01-18T10:11:14.788Z,13.30
2023-01-18T10:14:11.164Z,10.95
2023-01-18T10:17:00.482Z,11.80
2023-01-18T10:19:45.731Z,11.60
2023-01-18T10:22:45.246Z,11.55
2023-01-18T10:25:35.864Z,11.30
2023-01-18T10:28:56.812Z,12.65
2023-01-18T10:32:03.087Z,6.88
2023-01-18T10:34:51.620Z,13.47
2023-01-18T10:37:45.212Z,4.78
2023-01-18T10:40:30.570Z,7.45
2023-01-18T10:43:21.212Z,7.03
2023-01-18T10:46:13.871Z,6.78
2023-01-18T10:48:59.314Z,7.78
2023-01-18T10:51:46.333Z,8.70
2023-01-18T10:54:31.624Z,8.57
2023-01-18T10:57:25.515Z,4.00
2023-01-18T11:00:34.742Z,6.07
2023-01-18T11:03:20.254Z,7.28
2023-01-18T11:06:07.020Z,7.60
2023-01-18T11:08:53.593Z,8.40
2023-01-18T11:11:57.272Z,5.22
2023-01-18T11:14:42.790Z,4.63
2023-01-18T11:17:30.815Z,5.00
2023-01-18T11:20:23.231Z,4.45
2023-01-18T11:23:17.486Z,4.53
2023-01-18T11:26:17.251Z,5.85
2023-01-18T11:29:06.564Z,7.53
2023-01-18T11:31:52.884Z,8.48
2023-01-18T11:34:43.671Z,4.57
2023-01-18T11:37:34.318Z,3.47
2023-01-18T11:40:20.433Z,3.45
2023-01-18T11:43:19.814Z,2.78
2023-01-18T11:46:36.220Z,3.85
2023-01-18T11:49:45.399Z,5.33
2023-01-18T11:52:46.723Z,3.67
2023-01-18T11:55:46.531Z,4.03
2023-01-18T11:58:34.135Z,6.10
2023-01-18T12:01:32.908Z,4.25
2023-01-18T12:05:02.086Z,3.72
2023-01-18T12:08:10.470Z,3.97
2023-01-18T12:11:18.572Z,3.83
2023-01-18T12:14:24.712Z,3.47
2023-01-18T12:17:27.204Z,2.20
2023-01-18T12:20:27.854Z,4.97
2023-01-18T12:23:27.624Z,2.67
2023-01-18T12:26:50.900Z,6.78
2023-01-18T12:30:14.186Z,7.35
2023-01-18T12:33:08.000Z,2.88
2023-01-18T12:36:02.065Z,4.45
2023-01-18T12:38:54.110Z,8.13
2023-01-18T12:41:45.237Z,4.78
2023-01-18T12:44:41.372Z,2.65
2023-01-18T12:47:35.344Z,4.90
2023-01-18T12:50:34.529Z,2.65
2023-01-18T12:53:28.637Z,3.40
2023-01-18T12:56:27.672Z,4.90
2023-01-18T12:59:20.559Z,2.80
2023-01-18T13:02:23.913Z,4.15
2023-01-18T13:05:24.313Z,3.88
2023-01-18T13:08:21.161Z,3.22
2023-01-18T13:11:17.314Z,2.10
2023-01-18T13:14:24.104Z,4.53
2023-01-18T13:17:18.769Z,2.25
2023-01-18T13:20:12.738Z,2.67
2023-01-18T13:23:14.789Z,3.00
2023-01-18T13:26:21.533Z,4.15
2023-01-18T13:29:10.037Z,3.53
2023-01-18T13:31:56.980Z,3.35
2023-01-18T13:34:48.625Z,3.17
2023-01-18T13:37:41.833Z,3.88
2023-01-18T13:40:36.939Z,3.20
2023-01-18T13:43:54.050Z,2.75
2023-01-18T13:46:42.379Z,2.63
2023-01-18T13:49:38.262Z,3.87
2023-01-18T13:52:42.183Z,2.75
2023-01-18T13:55:31.823Z,2.80
2023-01-18T13:58:24.087Z,3.60
2023-01-18T14:01:22.730Z,3.45
2023-01-18T14:04:30.639Z,3.58
2023-01-18T14:07:22.549Z,3.08
2023-01-18T14:10:25.388Z,3.15
2023-01-18T14:13:17.526Z,3.72
2023-01-18T14:16:02.899Z,5.55
2023-01-18T14:18:55.788Z,3.40
2023-01-18T14:21:47.188Z,4.10
2023-01-18T14:24:58.381Z,2.63
2023-01-18T14:27:50.034Z,3.75
2023-01-18T14:30:38.590Z,4.40
2023-01-18T14:33:32.685Z,3.45
2023-01-18T14:36:27.091Z,6.60
2023-01-18T14:39:16.164Z,3.73
2023-01-18T14:42:05.732Z,4.68
2023-01-18T14:44:58.780Z,9.40
2023-01-18T14:47:44.811Z,4.53
2023-01-18T14:50:36.073Z,4.53
2023-01-18T14:53:25.377Z,4.47
2023-01-18T14:56:13.730Z,4.03
2023-01-18T14:59:17.866Z,5.38
2023-01-18T15:02:16.677Z,3.92
2023-01-18T15:05:13.663Z,3.92
2023-01-18T15:07:59.469Z,4.80
2023-01-18T15:10:45.944Z,4.78
2023-01-18T15:13:32.684Z,5.55
2023-01-18T15:16:21.794Z,3.87
2023-01-18T15:19:14.563Z,6.65
2023-01-18T15:22:02.154Z,4.95
2023-01-18T15:24:47.642Z,4.38
2023-01-18T15:27:33.414Z,4.75
2023-01-18T15:30:22.517Z,3.78
2023-01-18T15:33:09.820Z,4.53
2023-01-18T15:36:01.109Z,3.92
2023-01-18T15:38:47.095Z,4.65
2023-01-18T15:41:33.032Z,4.75
2023-01-18T15:44:51.384Z,5.53
2023-01-18T15:47:38.188Z,5.13
2023-01-18T15:50:30.836Z,3.25
2023-01-18T15:53:35.380Z,3.58
2023-01-18T15:56:26.246Z,9.52
2023-01-18T15:59:11.874Z,5.75
2023-01-18T16:02:09.638Z,4.30
2023-01-18T16:05:22.197Z,5.53
2023-01-18T16:08:22.640Z,6.20
2023-01-18T16:11:26.627Z,4.47
2023-01-18T16:14:31.207Z,7.47
2023-01-18T16:17:20.964Z,7.07
2023-01-18T16:20:16.347Z,8.70
2023-01-18T16:23:08.935Z,6.65
2023-01-18T16:26:01.959Z,16.47
2023-01-18T16:28:47.582Z,7.75
2023-01-18T16:31:34.421Z,8.07
2023-01-18T16:34:25.451Z,7.07
2023-01-18T16:37:10.804Z,7.40
2023-01-18T16:39:56.324Z,6.43
2023-01-18T16:43:03.296Z,7.57
2023-01-18T16:45:51.539Z,10.00
2023-01-18T16:48:37.551Z,7.53
2023-01-18T16:51:24.375Z,5.57
2023-01-18T16:54:09.793Z,7.13
2023-01-18T16:56:55.148Z,5.68
2023-01-18T16:59:40.607Z,5.47
2023-01-18T17:02:25.943Z,6.72
2023-01-18T17:05:12.896Z,7.65
2023-01-18T17:08:00.195Z,7.72
2023-01-18T17:10:48.013Z,7.47
2023-01-18T17:13:33.360Z,8.15
2023-01-18T17:16:19.770Z,6.70
2023-01-18T17:19:05.647Z,7.43
2023-01-18T17:21:51.591Z,10.05
2023-01-18T17:24:37.071Z,7.87
2023-01-18T17:27:22.294Z,9.50
2023-01-18T17:30:09.049Z,9.77
2023-01-18T17:32:54.807Z,6.57
2023-01-18T17:35:40.025Z,7.25
2023-01-18T17:38:29.593Z,7.80
2023-01-18T17:41:26.780Z,6.82
2023-01-18T17:44:12.655Z,10.60
2023-01-18T17:46:58.165Z,11.25
2023-01-18T17:49:43.577Z,7.15
2023-01-18T17:52:29.244Z,8.63
2023-01-18T17:55:15.268Z,7.13
2023-01-18T17:58:00.867Z,7.20
2023-01-18T18:00:46.610Z,7.60
2023-01-18T18:03:32.357Z,5.88
2023-01-18T18:06:30.327Z,9.20
2023-01-18T18:09:16.692Z,6.25
2023-01-18T18:12:02.311Z,5.60
2023-01-18T18:14:51.243Z,10.83
2023-01-18T18:17:36.873Z,8.63
2023-01-18T18:20:22.950Z,7.72
2023-01-18T18:23:10.126Z,10.02
2023-01-18T18:25:56.213Z,6.57
2023-01-18T18:28:41.912Z,7.18
2023-01-18T18:31:27.700Z,5.68
2023-01-18T18:34:13.590Z,8.95
2023-01-18T18:36:58.979Z,10.63
2023-01-18T18:39:44.629Z,5.85
2023-01-18T18:42:30.031Z,6.40
2023-01-18T18:45:15.583Z,7.00
2023-01-18T18:48:01.364Z,6.95
2023-01-18T18:50:47.333Z,7.45
2023-01-18T18:53:38.643Z,6.90
2023-01-18T18:56:25.882Z,5.37
2023-01-18T18:59:11.622Z,6.85
2023-01-18T19:01:57.298Z,7.20
2023-01-18T19:04:42.738Z,9.32
2023-01-18T19:07:28.548Z,12.23
2023-01-18T19:10:14.700Z,7.30
2023-01-18T19:13:02.055Z,7.82
2023-01-18T19:15:49.373Z,6.22
2023-01-18T19:18:34.975Z,7.25
2023-01-18T19:21:20.675Z,7.05
2023-01-18T19:24:06.147Z,10.55
2023-01-18T19:26:51.615Z,7.80
2023-01-18T19:29:38.417Z,10.20
2023-01-18T19:32:24.359Z,11.82
2023-01-18T19:35:10.116Z,7.60
2023-01-18T19:37:55.497Z,7.90
2023-01-18T19:40:41.068Z,8.35
2023-01-18T19:43:26.421Z,7.10
2023-01-18T19:46:13.379Z,8.90
2023-01-18T19:48:59.425Z,8.77
2023-01-18T19:51:45.618Z,7.38
2023-01-18T19:54:30.973Z,7.27
2023-01-18T19:57:16.632Z,7.85
2023-01-18T20:00:07.000Z,7.97
2023-01-18T20:02:53.477Z,7.22
2023-01-18T20:05:42.631Z,6.03
2023-01-18T20:08:28.032Z,6.22
2023-01-18T20:11:14.812Z,6.78
2023-01-18T20:14:00.345Z,9.63
2023-01-18T20:16:46.609Z,9.40
2023-01-18T20:19:32.239Z,8.27
2023-01-18T20:22:18.231Z,6.13
2023-01-18T20:25:04.304Z,6.47
2023-01-18T20:27:49.502Z,8.82
2023-01-18T20:30:34.939Z,6.40
2023-01-18T20:33:20.390Z,5.53
2023-01-18T20:36:07.461Z,7.78
2023-01-18T20:38:53.288Z,7.70
2023-01-18T20:41:38.933Z,9.45
2023-01-18T20:44:24.759Z,7.78
2023-01-18T20:47:10.314Z,8.10
2023-01-18T20:49:56.067Z,5.75
2023-01-18T20:52:41.953Z,10.20
2023-01-18T20:55:27.237Z,7.38
2023-01-18T20:58:12.606Z,7.15
2023-01-18T21:01:03.915Z,6.85
2023-01-18T21:03:54.300Z,6.85
2023-01-18T21:06:44.795Z,6.67
2023-01-18T21:09:30.396Z,7.30
2023-01-18T21:12:15.860Z,8.13
2023-01-18T21:15:01.310Z,8.15
2023-01-18T21:17:46.960Z,6.25
2023-01-18T21:20:32.617Z,7.10
2023-01-18T21:23:18.336Z,7.65
2023-01-18T21:26:03.857Z,8.70
2023-01-18T21:28:49.582Z,10.30
2023-01-18T21:31:35.208Z,8.13
2023-01-18T21:34:20.804Z,6.05
2023-01-18T21:37:06.138Z,7.13
2023-01-18T21:39:51.713Z,9.07
2023-01-18T21:42:55.393Z,6.75
2023-01-18T21:45:56.422Z,7.07
2023-01-18T21:48:41.918Z,7.28
2023-01-18T21:51:45.765Z,7.15
2023-01-18T21:54:31.228Z,8.68
2023-01-18T21:57:16.555Z,6.35
2023-01-18T22:00:02.985Z,8.43
2023-01-18T22:02:48.552Z,8.50
2023-01-18T22:05:34.394Z,6.38
2023-01-18T22:08:19.839Z,7.95
2023-01-18T22:11:05.355Z,7.50
2023-01-18T22:13:50.614Z,6.93
2023-01-18T22:16:36.534Z,6.45
2023-01-18T22:19:22.185Z,6.72
2023-01-18T22:22:07.672Z,7.15
2023-01-18T22:24:53.501Z,6.35
2023-01-18T22:27:38.993Z,6.32
2023-01-18T22:30:24.912Z,6.47
2023-01-18T22:33:10.278Z,8.02
2023-01-18T22:35:59.355Z,8.47
2023-01-18T22:38:45.499Z,6.07
2023-01-18T22:41:30.950Z,7.67
2023-01-18T22:44:16.987Z,6.75
2023-01-18T22:47:02.363Z,6.97
2023-01-18T22:49:47.738Z,6.40
2023-01-18T22:52:33.336Z,6.13
2023-01-18T22:55:18.715Z,8.27
2023-01-18T22:58:04.208Z,6.45
2023-01-18T23:00:50.095Z,8.30
2023-01-18T23:03:35.800Z,7.47
2023-01-18T23:06:21.860Z,6.70
2023-01-18T23:09:09.201Z,7.82
2023-01-18T23:11:54.547Z,6.53
2023-01-18T23:14:58.608Z,9.02
2023-01-18T23:17:44.948Z,9.73
2023-01-18T23:20:30.322Z,6.10
2023-01-18T23:23:15.720Z,7.47
2023-01-18T23:26:01.278Z,5.78
2023-01-18T23:28:47.075Z,5.85
2023-01-18T23:31:32.877Z,6.63
2023-01-18T23:34:18.481Z,7.53
2023-01-18T23:37:03.865Z,7.10
2023-01-18T23:40:07.868Z,6.95
2023-01-18T23:43:12.333Z,6.53
2023-01-18T23:46:16.845Z,8.77
2023-01-18T23:49:20.601Z,6.90
2023-01-18T23:52:24.964Z,5.93
2023-01-18T23:55:10.453Z,4.55
2023-01-18T23:57:55.923Z,7.13
